sensor_id;sensor_type;location;lat;lon;timestamp;P1;durP1;ratioP1;P2;durP2;ratioP2
54983;SDS011;40884;53.562;9.940;2022-07-29T00:00:13;3.80;;;1.90;;
54983;SDS011;40884;53.562;9.940;2022-07-29T00:01:14;4.37;;;1.70;;
54983;SDS011;40884;53.562;9.940;2022-07-29T00:02:14;3.43;;;1.97;;
54983;SDS011;40884;53.562;9.940;2022-07-29T00:03:14;3.37;;;1.67;;
54983;SDS011;40884;53.562;9.940;2022-07-29T00:04:14;3.47;;;1.73;;
54983;SDS011;40884;53.562;9.940;2022-07-29T00:05:15;3.00;;;1.73;;
54983;SDS011;40884;53.562;9.940;2022-07-29T00:06:15;3.73;;;1.50;;
54983;SDS011;40884;53.562;9.940;2022-07-29T00:07:15;4.40;;;1.57;;
54983;SDS011;40884;53.562;9.940;2022-07-29T00:08:15;4.43;;;1.50;;
54983;SDS011;40884;53.562;9.940;2022-07-29T00:09:16;3.87;;;1.60;;
54983;SDS011;40884;53.562;9.940;2022-07-29T00:10:16;2.07;;;1.50;;
54983;SDS011;40884;53.562;9.940;2022-07-29T00:11:16;4.57;;;1.63;;
54983;SDS011;40884;53.562;9.940;2022-07-29T00:12:16;2.50;;;1.40;;
54983;SDS011;40884;53.562;9.940;2022-07-29T00:13:16;4.07;;;1.60;;
54983;SDS011;40884;53.562;9.940;2022-07-29T00:14:16;2.87;;;1.40;;
54983;SDS011;40884;53.562;9.940;2022-07-29T00:15:16;4.10;;;1.50;;
54983;SDS011;40884;53.562;9.940;2022-07-29T00:16:16;2.93;;;1.30;;
54983;SDS011;40884;53.562;9.940;2022-07-29T00:17:16;1.87;;;1.27;;
54983;SDS011;40884;53.562;9.940;2022-07-29T00:18:17;3.90;;;1.50;;
54983;SDS011;40884;53.562;9.940;2022-07-29T00:19:17;2.37;;;1.50;;
54983;SDS011;40884;53.562;9.940;2022-07-29T00:20:17;4.80;;;1.50;;
54983;SDS011;40884;53.562;9.940;2022-07-29T00:21:17;2.90;;;1.50;;
54983;SDS011;40884;53.562;9.940;2022-07-29T00:22:18;3.17;;;1.67;;
54983;SDS011;40884;53.562;9.940;2022-07-29T00:23:19;2.27;;;1.30;;
54983;SDS011;40884;53.562;9.940;2022-07-29T00:24:19;3.37;;;1.60;;
54983;SDS011;40884;53.562;9.940;2022-07-29T00:25:19;5.10;;;1.30;;
54983;SDS011;40884;53.562;9.940;2022-07-29T00:26:19;3.77;;;1.30;;
54983;SDS011;40884;53.562;9.940;2022-07-29T00:27:19;4.00;;;1.67;;
54983;SDS011;40884;53.562;9.940;2022-07-29T00:28:19;2.77;;;1.40;;
54983;SDS011;40884;53.562;9.940;2022-07-29T00:29:19;3.07;;;1.73;;
54983;SDS011;40884;53.562;9.940;2022-07-29T00:30:19;2.83;;;1.50;;
54983;SDS011;40884;53.562;9.940;2022-07-29T00:31:20;4.03;;;1.77;;
54983;SDS011;40884;53.562;9.940;2022-07-29T00:32:20;3.60;;;1.93;;
54983;SDS011;40884;53.562;9.940;2022-07-29T00:33:20;7.97;;;1.87;;
54983;SDS011;40884;53.562;9.940;2022-07-29T00:34:20;4.73;;;1.80;;
54983;SDS011;40884;53.562;9.940;2022-07-29T00:35:20;2.27;;;1.50;;
54983;SDS011;40884;53.562;9.940;2022-07-29T00:36:20;2.57;;;1.70;;
54983;SDS011;40884;53.562;9.940;2022-07-29T00:37:21;4.77;;;2.00;;
54983;SDS011;40884;53.562;9.940;2022-07-29T00:38:21;4.37;;;1.50;;
54983;SDS011;40884;53.562;9.940;2022-07-29T00:39:21;3.20;;;1.67;;
54983;SDS011;40884;53.562;9.940;2022-07-29T00:40:21;5.67;;;1.60;;
54983;SDS011;40884;53.562;9.940;2022-07-29T00:41:21;4.30;;;1.70;;
54983;SDS011;40884;53.562;9.940;2022-07-29T00:42:21;6.60;;;2.00;;
54983;SDS011;40884;53.562;9.940;2022-07-29T00:43:21;3.07;;;1.57;;
54983;SDS011;40884;53.562;9.940;2022-07-29T00:44:21;3.03;;;1.70;;
54983;SDS011;40884;53.562;9.940;2022-07-29T00:45:22;3.13;;;1.70;;
54983;SDS011;40884;53.562;9.940;2022-07-29T00:46:22;5.87;;;1.53;;
54983;SDS011;40884;53.562;9.940;2022-07-29T00:47:22;3.90;;;1.60;;
54983;SDS011;40884;53.562;9.940;2022-07-29T00:48:22;2.70;;;1.40;;
54983;SDS011;40884;53.562;9.940;2022-07-29T00:49:22;4.67;;;1.60;;
54983;SDS011;40884;53.562;9.940;2022-07-29T00:50:22;2.30;;;1.50;;
54983;SDS011;40884;53.562;9.940;2022-07-29T00:51:22;4.47;;;1.80;;
54983;SDS011;40884;53.562;9.940;2022-07-29T00:52:25;3.20;;;1.47;;
54983;SDS011;40884;53.562;9.940;2022-07-29T00:53:25;6.70;;;1.67;;
54983;SDS011;40884;53.562;9.940;2022-07-29T00:54:26;4.50;;;1.70;;
54983;SDS011;40884;53.562;9.940;2022-07-29T00:55:26;5.10;;;1.60;;
54983;SDS011;40884;53.562;9.940;2022-07-29T00:56:26;2.37;;;1.47;;
54983;SDS011;40884;53.562;9.940;2022-07-29T00:57:26;3.67;;;1.80;;
54983;SDS011;40884;53.562;9.940;2022-07-29T00:58:26;2.00;;;1.33;;
54983;SDS011;40884;53.562;9.940;2022-07-29T00:59:27;4.57;;;1.40;;
54983;SDS011;40884;53.562;9.940;2022-07-29T01:00:30;3.17;;;1.70;;
54983;SDS011;40884;53.562;9.940;2022-07-29T01:01:30;2.80;;;1.60;;
54983;SDS011;40884;53.562;9.940;2022-07-29T01:02:30;2.87;;;1.50;;
54983;SDS011;40884;53.562;9.940;2022-07-29T01:03:30;5.70;;;1.60;;
54983;SDS011;40884;53.562;9.940;2022-07-29T01:04:31;3.00;;;1.57;;
54983;SDS011;40884;53.562;9.940;2022-07-29T01:05:31;5.17;;;1.73;;
54983;SDS011;40884;53.562;9.940;2022-07-29T01:06:31;3.20;;;1.50;;
54983;SDS011;40884;53.562;9.940;2022-07-29T01:07:32;2.17;;;1.57;;
54983;SDS011;40884;53.562;9.940;2022-07-29T01:08:33;3.43;;;1.43;;
54983;SDS011;40884;53.562;9.940;2022-07-29T01:09:34;4.00;;;1.73;;
54983;SDS011;40884;53.562;9.940;2022-07-29T01:10:35;3.90;;;1.77;;
54983;SDS011;40884;53.562;9.940;2022-07-29T01:11:37;3.47;;;1.70;;
54983;SDS011;40884;53.562;9.940;2022-07-29T01:12:39;2.80;;;1.73;;
54983;SDS011;40884;53.562;9.940;2022-07-29T01:13:39;6.23;;;1.73;;
54983;SDS011;40884;53.562;9.940;2022-07-29T01:14:40;4.83;;;1.90;;
54983;SDS011;40884;53.562;9.940;2022-07-29T01:15:43;5.43;;;2.13;;
54983;SDS011;40884;53.562;9.940;2022-07-29T01:17:06;5.00;;;1.70;;
54983;SDS011;40884;53.562;9.940;2022-07-29T01:18:10;2.77;;;1.63;;
54983;SDS011;40884;53.562;9.940;2022-07-29T01:19:33;3.60;;;1.50;;
54983;SDS011;40884;53.562;9.940;2022-07-29T01:20:55;4.23;;;1.70;;
54983;SDS011;40884;53.562;9.940;2022-07-29T01:21:58;3.67;;;1.60;;
54983;SDS011;40884;53.562;9.940;2022-07-29T01:28:38;3.93;;;1.77;;
54983;SDS011;40884;53.562;9.940;2022-07-29T01:29:39;8.07;;;2.27;;
54983;SDS011;40884;53.562;9.940;2022-07-29T01:30:41;5.00;;;1.70;;
54983;SDS011;40884;53.562;9.940;2022-07-29T01:31:43;3.90;;;1.83;;
54983;SDS011;40884;53.562;9.940;2022-07-29T01:32:46;4.80;;;2.00;;
54983;SDS011;40884;53.562;9.940;2022-07-29T01:33:49;3.03;;;1.80;;
54983;SDS011;40884;53.562;9.940;2022-07-29T01:34:52;2.93;;;1.63;;
54983;SDS011;40884;53.562;9.940;2022-07-29T01:35:52;4.63;;;1.83;;
54983;SDS011;40884;53.562;9.940;2022-07-29T01:37:01;3.60;;;2.00;;
54983;SDS011;40884;53.562;9.940;2022-07-29T01:38:12;4.23;;;1.97;;
54983;SDS011;40884;53.562;9.940;2022-07-29T01:39:21;5.57;;;1.80;;
54983;SDS011;40884;53.562;9.940;2022-07-29T01:40:31;2.57;;;1.80;;
54983;SDS011;40884;53.562;9.940;2022-07-29T01:41:33;6.13;;;1.90;;
54983;SDS011;40884;53.562;9.940;2022-07-29T01:42:35;6.70;;;2.00;;
54983;SDS011;40884;53.562;9.940;2022-07-29T01:43:41;3.60;;;1.70;;
54983;SDS011;40884;53.562;9.940;2022-07-29T01:45:06;3.13;;;1.80;;
54983;SDS011;40884;53.562;9.940;2022-07-29T01:46:04;4.37;;;1.83;;
54983;SDS011;40884;53.562;9.940;2022-07-29T01:47:08;3.83;;;2.07;;
54983;SDS011;40884;53.562;9.940;2022-07-29T01:49:14;4.43;;;1.80;;
54983;SDS011;40884;53.562;9.940;2022-07-29T01:50:16;4.43;;;2.17;;
54983;SDS011;40884;53.562;9.940;2022-07-29T01:51:21;4.00;;;1.80;;
54983;SDS011;40884;53.562;9.940;2022-07-29T01:52:47;8.90;;;2.07;;
54983;SDS011;40884;53.562;9.940;2022-07-29T01:54:54;3.30;;;1.67;;
54983;SDS011;40884;53.562;9.940;2022-07-29T01:55:55;2.83;;;1.97;;
54983;SDS011;40884;53.562;9.940;2022-07-29T01:56:57;2.70;;;1.77;;
54983;SDS011;40884;53.562;9.940;2022-07-29T01:57:58;3.47;;;1.97;;
54983;SDS011;40884;53.562;9.940;2022-07-29T01:59:00;3.83;;;2.30;;
54983;SDS011;40884;53.562;9.940;2022-07-29T02:00:01;3.87;;;1.83;;
54983;SDS011;40884;53.562;9.940;2022-07-29T02:01:11;2.73;;;2.13;;
54983;SDS011;40884;53.562;9.940;2022-07-29T02:02:13;5.57;;;2.03;;
54983;SDS011;40884;53.562;9.940;2022-07-29T02:03:13;4.10;;;2.10;;
54983;SDS011;40884;53.562;9.940;2022-07-29T02:04:14;3.60;;;1.90;;
54983;SDS011;40884;53.562;9.940;2022-07-29T02:05:15;5.67;;;2.13;;
54983;SDS011;40884;53.562;9.940;2022-07-29T02:06:17;4.13;;;2.13;;
54983;SDS011;40884;53.562;9.940;2022-07-29T02:07:20;4.67;;;2.17;;
54983;SDS011;40884;53.562;9.940;2022-07-29T02:08:20;4.07;;;2.20;;
54983;SDS011;40884;53.562;9.940;2022-07-29T02:09:21;3.97;;;2.30;;
54983;SDS011;40884;53.562;9.940;2022-07-29T02:10:23;4.00;;;2.27;;
54983;SDS011;40884;53.562;9.940;2022-07-29T02:11:24;3.47;;;2.17;;
54983;SDS011;40884;53.562;9.940;2022-07-29T02:12:25;5.40;;;2.30;;
54983;SDS011;40884;53.562;9.940;2022-07-29T02:13:25;4.80;;;2.40;;
54983;SDS011;40884;53.562;9.940;2022-07-29T02:14:28;5.07;;;2.37;;
54983;SDS011;40884;53.562;9.940;2022-07-29T02:15:30;4.20;;;2.30;;
54983;SDS011;40884;53.562;9.940;2022-07-29T02:16:32;6.60;;;2.57;;
54983;SDS011;40884;53.562;9.940;2022-07-29T02:17:33;5.33;;;2.50;;
54983;SDS011;40884;53.562;9.940;2022-07-29T02:18:36;5.10;;;2.40;;
54983;SDS011;40884;53.562;9.940;2022-07-29T02:19:36;4.70;;;2.23;;
54983;SDS011;40884;53.562;9.940;2022-07-29T02:20:37;4.50;;;2.57;;
54983;SDS011;40884;53.562;9.940;2022-07-29T02:21:37;6.00;;;2.50;;
54983;SDS011;40884;53.562;9.940;2022-07-29T02:22:38;7.57;;;2.83;;
54983;SDS011;40884;53.562;9.940;2022-07-29T02:23:39;6.30;;;2.40;;
54983;SDS011;40884;53.562;9.940;2022-07-29T02:24:39;5.03;;;2.50;;
54983;SDS011;40884;53.562;9.940;2022-07-29T02:25:41;3.13;;;2.20;;
54983;SDS011;40884;53.562;9.940;2022-07-29T02:26:41;5.17;;;2.60;;
54983;SDS011;40884;53.562;9.940;2022-07-29T02:27:42;6.03;;;2.53;;
54983;SDS011;40884;53.562;9.940;2022-07-29T02:28:44;3.37;;;2.37;;
54983;SDS011;40884;53.562;9.940;2022-07-29T02:29:46;5.43;;;2.70;;
54983;SDS011;40884;53.562;9.940;2022-07-29T02:30:47;4.97;;;2.30;;
54983;SDS011;40884;53.562;9.940;2022-07-29T02:31:47;5.90;;;2.43;;
54983;SDS011;40884;53.562;9.940;2022-07-29T02:32:48;6.73;;;2.67;;
54983;SDS011;40884;53.562;9.940;2022-07-29T02:33:49;6.77;;;2.80;;
54983;SDS011;40884;53.562;9.940;2022-07-29T02:34:49;5.23;;;2.60;;
54983;SDS011;40884;53.562;9.940;2022-07-29T02:35:50;6.00;;;2.30;;
54983;SDS011;40884;53.562;9.940;2022-07-29T02:36:50;5.50;;;2.30;;
54983;SDS011;40884;53.562;9.940;2022-07-29T02:37:51;6.70;;;2.30;;
54983;SDS011;40884;53.562;9.940;2022-07-29T02:38:52;4.83;;;2.40;;
54983;SDS011;40884;53.562;9.940;2022-07-29T02:39:53;4.03;;;2.13;;
54983;SDS011;40884;53.562;9.940;2022-07-29T02:40:53;4.03;;;2.27;;
54983;SDS011;40884;53.562;9.940;2022-07-29T02:41:56;2.90;;;2.07;;
54983;SDS011;40884;53.562;9.940;2022-07-29T02:42:58;4.90;;;2.40;;
54983;SDS011;40884;53.562;9.940;2022-07-29T02:44:03;5.53;;;2.03;;
54983;SDS011;40884;53.562;9.940;2022-07-29T02:45:05;4.20;;;1.90;;
54983;SDS011;40884;53.562;9.940;2022-07-29T02:46:05;4.37;;;2.03;;
54983;SDS011;40884;53.562;9.940;2022-07-29T02:47:21;4.23;;;2.03;;
54983;SDS011;40884;53.562;9.940;2022-07-29T02:48:22;4.50;;;1.97;;
54983;SDS011;40884;53.562;9.940;2022-07-29T02:49:32;5.67;;;2.10;;
54983;SDS011;40884;53.562;9.940;2022-07-29T02:50:37;4.80;;;2.27;;
54983;SDS011;40884;53.562;9.940;2022-07-29T02:51:45;3.90;;;2.30;;
54983;SDS011;40884;53.562;9.940;2022-07-29T02:52:47;4.37;;;1.90;;
54983;SDS011;40884;53.562;9.940;2022-07-29T02:53:51;11.50;;;2.20;;
54983;SDS011;40884;53.562;9.940;2022-07-29T02:55:06;3.93;;;2.10;;
54983;SDS011;40884;53.562;9.940;2022-07-29T02:56:13;3.70;;;2.30;;
54983;SDS011;40884;53.562;9.940;2022-07-29T02:57:16;4.90;;;1.93;;
54983;SDS011;40884;53.562;9.940;2022-07-29T02:58:21;4.90;;;2.20;;
54983;SDS011;40884;53.562;9.940;2022-07-29T02:59:25;5.57;;;2.10;;
54983;SDS011;40884;53.562;9.940;2022-07-29T03:00:27;3.93;;;2.37;;
54983;SDS011;40884;53.562;9.940;2022-07-29T03:01:30;3.57;;;2.20;;
54983;SDS011;40884;53.562;9.940;2022-07-29T03:02:31;3.60;;;2.20;;
54983;SDS011;40884;53.562;9.940;2022-07-29T03:03:34;4.23;;;2.17;;
54983;SDS011;40884;53.562;9.940;2022-07-29T03:04:35;4.60;;;1.93;;
54983;SDS011;40884;53.562;9.940;2022-07-29T03:05:37;3.33;;;1.80;;
54983;SDS011;40884;53.562;9.940;2022-07-29T03:06:38;7.07;;;2.50;;
54983;SDS011;40884;53.562;9.940;2022-07-29T03:07:38;6.33;;;2.17;;
54983;SDS011;40884;53.562;9.940;2022-07-29T03:08:39;4.10;;;2.17;;
54983;SDS011;40884;53.562;9.940;2022-07-29T03:09:40;6.47;;;2.33;;
54983;SDS011;40884;53.562;9.940;2022-07-29T03:10:42;5.00;;;1.77;;
54983;SDS011;40884;53.562;9.940;2022-07-29T03:11:43;3.50;;;2.00;;
54983;SDS011;40884;53.562;9.940;2022-07-29T03:12:43;4.83;;;2.20;;
54983;SDS011;40884;53.562;9.940;2022-07-29T03:13:44;7.47;;;2.63;;
54983;SDS011;40884;53.562;9.940;2022-07-29T03:14:44;6.37;;;2.07;;
54983;SDS011;40884;53.562;9.940;2022-07-29T03:15:45;2.77;;;1.93;;
54983;SDS011;40884;53.562;9.940;2022-07-29T03:16:45;3.23;;;1.80;;
54983;SDS011;40884;53.562;9.940;2022-07-29T03:17:46;4.13;;;1.90;;
54983;SDS011;40884;53.562;9.940;2022-07-29T03:18:46;8.73;;;2.27;;
54983;SDS011;40884;53.562;9.940;2022-07-29T03:19:47;4.87;;;2.27;;
54983;SDS011;40884;53.562;9.940;2022-07-29T03:20:47;3.73;;;2.20;;
54983;SDS011;40884;53.562;9.940;2022-07-29T03:21:47;3.90;;;2.00;;
54983;SDS011;40884;53.562;9.940;2022-07-29T03:22:47;5.57;;;2.50;;
54983;SDS011;40884;53.562;9.940;2022-07-29T03:23:48;3.93;;;2.07;;
54983;SDS011;40884;53.562;9.940;2022-07-29T03:24:48;4.57;;;2.30;;
54983;SDS011;40884;53.562;9.940;2022-07-29T03:25:48;4.50;;;2.13;;
54983;SDS011;40884;53.562;9.940;2022-07-29T03:26:48;4.17;;;2.20;;
54983;SDS011;40884;53.562;9.940;2022-07-29T03:27:49;4.20;;;2.03;;
54983;SDS011;40884;53.562;9.940;2022-07-29T03:28:49;5.77;;;2.00;;
54983;SDS011;40884;53.562;9.940;2022-07-29T03:29:49;4.87;;;2.50;;
54983;SDS011;40884;53.562;9.940;2022-07-29T03:30:49;2.97;;;2.13;;
54983;SDS011;40884;53.562;9.940;2022-07-29T03:31:49;6.30;;;2.53;;
54983;SDS011;40884;53.562;9.940;2022-07-29T03:32:50;3.43;;;2.07;;
54983;SDS011;40884;53.562;9.940;2022-07-29T03:33:50;2.73;;;2.10;;
54983;SDS011;40884;53.562;9.940;2022-07-29T03:34:50;4.13;;;1.80;;
54983;SDS011;40884;53.562;9.940;2022-07-29T03:35:50;3.60;;;2.30;;
54983;SDS011;40884;53.562;9.940;2022-07-29T03:36:50;4.53;;;2.20;;
54983;SDS011;40884;53.562;9.940;2022-07-29T03:37:50;4.43;;;2.13;;
54983;SDS011;40884;53.562;9.940;2022-07-29T03:38:51;6.53;;;2.00;;
54983;SDS011;40884;53.562;9.940;2022-07-29T03:39:52;5.40;;;2.13;;
54983;SDS011;40884;53.562;9.940;2022-07-29T03:40:56;5.10;;;1.80;;
54983;SDS011;40884;53.562;9.940;2022-07-29T03:41:57;4.37;;;2.10;;
54983;SDS011;40884;53.562;9.940;2022-07-29T03:42:59;3.87;;;2.00;;
54983;SDS011;40884;53.562;9.940;2022-07-29T03:44:00;4.00;;;2.30;;
54983;SDS011;40884;53.562;9.940;2022-07-29T03:45:02;4.33;;;1.97;;
54983;SDS011;40884;53.562;9.940;2022-07-29T03:46:03;3.93;;;1.90;;
54983;SDS011;40884;53.562;9.940;2022-07-29T03:47:05;4.67;;;2.10;;
54983;SDS011;40884;53.562;9.940;2022-07-29T03:48:07;5.73;;;2.10;;
54983;SDS011;40884;53.562;9.940;2022-07-29T03:49:08;4.90;;;2.57;;
54983;SDS011;40884;53.562;9.940;2022-07-29T03:50:10;7.37;;;2.60;;
54983;SDS011;40884;53.562;9.940;2022-07-29T03:51:11;4.90;;;2.37;;
54983;SDS011;40884;53.562;9.940;2022-07-29T03:52:11;5.50;;;2.40;;
54983;SDS011;40884;53.562;9.940;2022-07-29T03:53:12;7.43;;;2.47;;
54983;SDS011;40884;53.562;9.940;2022-07-29T03:54:12;6.53;;;2.37;;
54983;SDS011;40884;53.562;9.940;2022-07-29T03:55:13;5.33;;;2.00;;
54983;SDS011;40884;53.562;9.940;2022-07-29T03:56:15;4.63;;;2.00;;
54983;SDS011;40884;53.562;9.940;2022-07-29T03:57:15;7.77;;;2.63;;
54983;SDS011;40884;53.562;9.940;2022-07-29T03:58:15;4.33;;;2.20;;
54983;SDS011;40884;53.562;9.940;2022-07-29T03:59:16;7.17;;;2.30;;
54983;SDS011;40884;53.562;9.940;2022-07-29T04:00:17;4.27;;;2.00;;
54983;SDS011;40884;53.562;9.940;2022-07-29T04:01:17;5.80;;;2.60;;
54983;SDS011;40884;53.562;9.940;2022-07-29T04:02:18;4.13;;;2.37;;
54983;SDS011;40884;53.562;9.940;2022-07-29T04:03:18;4.30;;;2.47;;
54983;SDS011;40884;53.562;9.940;2022-07-29T04:04:18;5.43;;;2.40;;
54983;SDS011;40884;53.562;9.940;2022-07-29T04:05:19;4.80;;;2.47;;
54983;SDS011;40884;53.562;9.940;2022-07-29T04:06:19;5.00;;;2.40;;
54983;SDS011;40884;53.562;9.940;2022-07-29T04:07:19;4.33;;;2.40;;
54983;SDS011;40884;53.562;9.940;2022-07-29T04:08:19;5.43;;;2.30;;
54983;SDS011;40884;53.562;9.940;2022-07-29T04:09:19;5.27;;;2.23;;
54983;SDS011;40884;53.562;9.940;2022-07-29T04:10:19;2.30;;;1.90;;
54983;SDS011;40884;53.562;9.940;2022-07-29T04:11:19;5.23;;;2.27;;
54983;SDS011;40884;53.562;9.940;2022-07-29T04:12:20;4.43;;;2.37;;
54983;SDS011;40884;53.562;9.940;2022-07-29T04:13:20;5.80;;;2.50;;
54983;SDS011;40884;53.562;9.940;2022-07-29T04:14:20;7.93;;;2.40;;
54983;SDS011;40884;53.562;9.940;2022-07-29T04:15:20;4.50;;;2.27;;
54983;SDS011;40884;53.562;9.940;2022-07-29T04:16:20;4.60;;;2.50;;
54983;SDS011;40884;53.562;9.940;2022-07-29T04:17:20;4.57;;;2.17;;
54983;SDS011;40884;53.562;9.940;2022-07-29T04:18:21;4.30;;;2.20;;
54983;SDS011;40884;53.562;9.940;2022-07-29T04:19:21;3.43;;;2.30;;
54983;SDS011;40884;53.562;9.940;2022-07-29T04:20:21;5.77;;;2.20;;
54983;SDS011;40884;53.562;9.940;2022-07-29T04:21:21;2.50;;;2.07;;
54983;SDS011;40884;53.562;9.940;2022-07-29T04:22:21;5.67;;;2.30;;
54983;SDS011;40884;53.562;9.940;2022-07-29T04:23:21;6.57;;;2.63;;
54983;SDS011;40884;53.562;9.940;2022-07-29T04:24:21;3.93;;;2.23;;
54983;SDS011;40884;53.562;9.940;2022-07-29T04:25:22;4.87;;;2.17;;
54983;SDS011;40884;53.562;9.940;2022-07-29T04:26:22;3.13;;;1.93;;
54983;SDS011;40884;53.562;9.940;2022-07-29T04:27:22;5.37;;;2.67;;
54983;SDS011;40884;53.562;9.940;2022-07-29T04:28:22;3.60;;;1.90;;
54983;SDS011;40884;53.562;9.940;2022-07-29T04:29:22;5.70;;;2.00;;
54983;SDS011;40884;53.562;9.940;2022-07-29T04:30:22;4.50;;;2.30;;
54983;SDS011;40884;53.562;9.940;2022-07-29T04:31:22;4.07;;;2.33;;
54983;SDS011;40884;53.562;9.940;2022-07-29T04:32:23;6.67;;;2.10;;
54983;SDS011;40884;53.562;9.940;2022-07-29T04:33:23;6.13;;;2.50;;
54983;SDS011;40884;53.562;9.940;2022-07-29T04:34:23;4.87;;;2.33;;
54983;SDS011;40884;53.562;9.940;2022-07-29T04:35:23;3.77;;;2.17;;
54983;SDS011;40884;53.562;9.940;2022-07-29T04:36:23;5.17;;;2.67;;
54983;SDS011;40884;53.562;9.940;2022-07-29T04:37:24;6.40;;;2.40;;
54983;SDS011;40884;53.562;9.940;2022-07-29T04:38:24;4.70;;;2.53;;
54983;SDS011;40884;53.562;9.940;2022-07-29T04:39:24;5.80;;;2.47;;
54983;SDS011;40884;53.562;9.940;2022-07-29T04:40:24;6.93;;;2.50;;
54983;SDS011;40884;53.562;9.940;2022-07-29T04:41:24;4.37;;;2.00;;
54983;SDS011;40884;53.562;9.940;2022-07-29T04:42:24;5.27;;;2.30;;
54983;SDS011;40884;53.562;9.940;2022-07-29T04:43:24;6.50;;;2.47;;
54983;SDS011;40884;53.562;9.940;2022-07-29T04:44:24;4.43;;;2.33;;
54983;SDS011;40884;53.562;9.940;2022-07-29T04:45:25;4.93;;;2.33;;
54983;SDS011;40884;53.562;9.940;2022-07-29T04:46:25;3.73;;;2.10;;
54983;SDS011;40884;53.562;9.940;2022-07-29T04:47:25;4.63;;;2.27;;
54983;SDS011;40884;53.562;9.940;2022-07-29T04:48:25;6.20;;;2.40;;
54983;SDS011;40884;53.562;9.940;2022-07-29T04:49:25;5.17;;;2.37;;
54983;SDS011;40884;53.562;9.940;2022-07-29T04:50:25;3.70;;;2.03;;
54983;SDS011;40884;53.562;9.940;2022-07-29T04:51:26;3.30;;;2.10;;
54983;SDS011;40884;53.562;9.940;2022-07-29T04:52:26;4.80;;;2.00;;
54983;SDS011;40884;53.562;9.940;2022-07-29T04:53:26;5.40;;;2.50;;
54983;SDS011;40884;53.562;9.940;2022-07-29T04:54:26;4.37;;;2.13;;
54983;SDS011;40884;53.562;9.940;2022-07-29T04:55:26;5.13;;;2.13;;
54983;SDS011;40884;53.562;9.940;2022-07-29T04:56:26;3.83;;;2.20;;
54983;SDS011;40884;53.562;9.940;2022-07-29T04:57:26;3.93;;;2.40;;
54983;SDS011;40884;53.562;9.940;2022-07-29T04:58:27;2.97;;;1.87;;
54983;SDS011;40884;53.562;9.940;2022-07-29T04:59:27;2.93;;;2.20;;
54983;SDS011;40884;53.562;9.940;2022-07-29T05:00:27;5.17;;;2.47;;
54983;SDS011;40884;53.562;9.940;2022-07-29T05:01:27;3.10;;;2.10;;
54983;SDS011;40884;53.562;9.940;2022-07-29T05:02:27;4.70;;;2.50;;
54983;SDS011;40884;53.562;9.940;2022-07-29T05:03:27;6.33;;;2.47;;
54983;SDS011;40884;53.562;9.940;2022-07-29T05:04:27;4.83;;;2.30;;
54983;SDS011;40884;53.562;9.940;2022-07-29T05:05:28;7.47;;;2.13;;
54983;SDS011;40884;53.562;9.940;2022-07-29T05:06:28;5.90;;;2.57;;
54983;SDS011;40884;53.562;9.940;2022-07-29T05:07:28;6.10;;;2.00;;
54983;SDS011;40884;53.562;9.940;2022-07-29T05:08:28;6.37;;;2.53;;
54983;SDS011;40884;53.562;9.940;2022-07-29T05:09:28;5.00;;;2.03;;
54983;SDS011;40884;53.562;9.940;2022-07-29T05:10:28;4.93;;;2.40;;
54983;SDS011;40884;53.562;9.940;2022-07-29T05:11:28;3.07;;;1.90;;
54983;SDS011;40884;53.562;9.940;2022-07-29T05:12:28;4.10;;;2.10;;
54983;SDS011;40884;53.562;9.940;2022-07-29T05:13:29;5.87;;;2.33;;
54983;SDS011;40884;53.562;9.940;2022-07-29T05:14:29;4.77;;;2.57;;
54983;SDS011;40884;53.562;9.940;2022-07-29T05:15:29;3.60;;;2.30;;
54983;SDS011;40884;53.562;9.940;2022-07-29T05:16:29;7.30;;;2.30;;
54983;SDS011;40884;53.562;9.940;2022-07-29T05:17:29;3.57;;;2.03;;
54983;SDS011;40884;53.562;9.940;2022-07-29T05:18:29;7.00;;;2.50;;
54983;SDS011;40884;53.562;9.940;2022-07-29T05:19:30;4.90;;;2.20;;
54983;SDS011;40884;53.562;9.940;2022-07-29T05:20:30;4.90;;;2.27;;
54983;SDS011;40884;53.562;9.940;2022-07-29T05:21:30;5.83;;;2.50;;
54983;SDS011;40884;53.562;9.940;2022-07-29T05:22:30;3.33;;;2.30;;
54983;SDS011;40884;53.562;9.940;2022-07-29T05:23:30;3.77;;;2.13;;
54983;SDS011;40884;53.562;9.940;2022-07-29T05:24:30;8.57;;;2.13;;
54983;SDS011;40884;53.562;9.940;2022-07-29T05:25:31;5.47;;;2.63;;
54983;SDS011;40884;53.562;9.940;2022-07-29T05:26:31;5.80;;;2.40;;
54983;SDS011;40884;53.562;9.940;2022-07-29T05:27:31;8.03;;;2.73;;
54983;SDS011;40884;53.562;9.940;2022-07-29T05:28:34;4.60;;;2.30;;
54983;SDS011;40884;53.562;9.940;2022-07-29T05:29:34;6.07;;;2.00;;
54983;SDS011;40884;53.562;9.940;2022-07-29T05:30:34;4.57;;;2.47;;
54983;SDS011;40884;53.562;9.940;2022-07-29T05:31:34;8.20;;;2.50;;
54983;SDS011;40884;53.562;9.940;2022-07-29T05:32:34;8.37;;;2.30;;
54983;SDS011;40884;53.562;9.940;2022-07-29T05:33:35;5.97;;;2.20;;
54983;SDS011;40884;53.562;9.940;2022-07-29T05:34:35;4.23;;;2.50;;
54983;SDS011;40884;53.562;9.940;2022-07-29T05:35:35;4.97;;;2.10;;
54983;SDS011;40884;53.562;9.940;2022-07-29T05:36:35;4.73;;;2.00;;
54983;SDS011;40884;53.562;9.940;2022-07-29T05:37:35;4.83;;;2.33;;
54983;SDS011;40884;53.562;9.940;2022-07-29T05:38:35;5.07;;;2.37;;
54983;SDS011;40884;53.562;9.940;2022-07-29T05:39:36;5.40;;;2.20;;
54983;SDS011;40884;53.562;9.940;2022-07-29T05:40:36;5.30;;;2.30;;
54983;SDS011;40884;53.562;9.940;2022-07-29T05:41:36;5.53;;;2.47;;
54983;SDS011;40884;53.562;9.940;2022-07-29T05:42:36;5.60;;;2.33;;
54983;SDS011;40884;53.562;9.940;2022-07-29T05:43:36;5.87;;;2.40;;
54983;SDS011;40884;53.562;9.940;2022-07-29T05:44:37;4.07;;;2.30;;
54983;SDS011;40884;53.562;9.940;2022-07-29T05:45:38;8.70;;;2.83;;
54983;SDS011;40884;53.562;9.940;2022-07-29T05:46:38;9.07;;;2.53;;
54983;SDS011;40884;53.562;9.940;2022-07-29T05:47:38;5.03;;;2.20;;
54983;SDS011;40884;53.562;9.940;2022-07-29T05:48:39;7.90;;;2.97;;
54983;SDS011;40884;53.562;9.940;2022-07-29T05:49:39;8.47;;;2.50;;
54983;SDS011;40884;53.562;9.940;2022-07-29T05:50:39;4.47;;;2.60;;
54983;SDS011;40884;53.562;9.940;2022-07-29T05:51:39;3.37;;;2.20;;
54983;SDS011;40884;53.562;9.940;2022-07-29T05:52:39;6.63;;;2.23;;
54983;SDS011;40884;53.562;9.940;2022-07-29T05:53:39;5.20;;;2.13;;
54983;SDS011;40884;53.562;9.940;2022-07-29T05:54:40;5.63;;;2.47;;
54983;SDS011;40884;53.562;9.940;2022-07-29T05:55:40;5.30;;;2.20;;
54983;SDS011;40884;53.562;9.940;2022-07-29T05:56:40;5.43;;;2.60;;
54983;SDS011;40884;53.562;9.940;2022-07-29T05:57:40;4.40;;;2.17;;
54983;SDS011;40884;53.562;9.940;2022-07-29T05:58:40;7.70;;;2.33;;
54983;SDS011;40884;53.562;9.940;2022-07-29T05:59:40;6.63;;;2.17;;
54983;SDS011;40884;53.562;9.940;2022-07-29T06:00:40;9.80;;;2.70;;
54983;SDS011;40884;53.562;9.940;2022-07-29T06:01:41;5.67;;;2.60;;
54983;SDS011;40884;53.562;9.940;2022-07-29T06:02:41;5.40;;;2.40;;
54983;SDS011;40884;53.562;9.940;2022-07-29T06:03:41;9.47;;;2.53;;
54983;SDS011;40884;53.562;9.940;2022-07-29T06:04:41;6.07;;;2.43;;
54983;SDS011;40884;53.562;9.940;2022-07-29T06:05:41;5.67;;;2.20;;
54983;SDS011;40884;53.562;9.940;2022-07-29T06:06:41;4.77;;;2.10;;
54983;SDS011;40884;53.562;9.940;2022-07-29T06:07:41;5.47;;;2.23;;
54983;SDS011;40884;53.562;9.940;2022-07-29T06:08:41;6.13;;;2.20;;
54983;SDS011;40884;53.562;9.940;2022-07-29T06:09:42;3.90;;;1.90;;
54983;SDS011;40884;53.562;9.940;2022-07-29T06:10:42;7.27;;;2.33;;
54983;SDS011;40884;53.562;9.940;2022-07-29T06:11:42;4.33;;;2.37;;
54983;SDS011;40884;53.562;9.940;2022-07-29T06:12:42;6.20;;;2.27;;
54983;SDS011;40884;53.562;9.940;2022-07-29T06:13:43;5.80;;;2.33;;
54983;SDS011;40884;53.562;9.940;2022-07-29T06:14:43;4.87;;;2.00;;
54983;SDS011;40884;53.562;9.940;2022-07-29T06:15:43;5.20;;;2.20;;
54983;SDS011;40884;53.562;9.940;2022-07-29T06:16:43;6.13;;;2.77;;